createdAt,value
2022-12-13T00:04:15.071Z,-5.4
2022-12-13T00:09:21.298Z,-5.4
2022-12-13T00:14:51.701Z,-5.5
2022-12-13T00:19:34.023Z,-5.5
2022-12-13T00:24:45.890Z,-5.6
2022-12-13T00:29:46.911Z,-5.6
2022-12-13T00:34:53.399Z,-5.7
2022-12-13T00:39:59.783Z,-5.7
2022-12-13T00:45:10.182Z,-5.8
2022-12-13T00:50:12.557Z,-5.8
2022-12-13T00:55:18.953Z,-5.8
2022-12-13T01:01:09.419Z,-5.9
2022-12-13T01:05:46.102Z,-5.9
2022-12-13T01:10:38.096Z,-6.0
2022-12-13T01:16:08.515Z,-6.0
2022-12-13T01:20:40.847Z,-6.0
2022-12-13T01:25:57.302Z,-6.1
2022-12-13T01:31:03.799Z,-6.0
2022-12-13T01:36:00.081Z,-6.1
2022-12-13T01:41:17.638Z,-6.1
2022-12-13T01:46:46.933Z,-6.2
2022-12-13T01:51:29.388Z,-6.2
2022-12-13T01:57:01.072Z,-6.2
2022-12-13T02:01:32.336Z,-6.2
2022-12-13T02:06:47.626Z,-6.3
2022-12-13T02:11:59.631Z,-6.3
2022-12-13T02:23:06.497Z,-6.4
2022-12-13T02:27:49.906Z,-6.4
2022-12-13T02:38:02.626Z,-6.4
2022-12-13T02:43:09.062Z,-6.5
2022-12-13T02:48:39.458Z,-6.5
2022-12-13T02:53:21.776Z,-6.6
2022-12-13T02:58:28.204Z,-6.6
2022-12-13T03:03:34.756Z,-6.6
2022-12-13T03:08:41.156Z,-6.6
2022-12-13T03:14:11.653Z,-6.7
2022-12-13T03:18:53.976Z,-6.7
2022-12-13T03:24:00.361Z,-6.7
2022-12-13T03:39:19.511Z,-6.8
2022-12-13T03:44:31.263Z,-6.8
2022-12-13T03:49:35.588Z,-6.9
2022-12-13T03:55:04.294Z,-6.9
2022-12-13T03:59:46.620Z,-6.9
2022-12-13T04:04:53.175Z,-6.9
2022-12-13T04:09:59.537Z,-7.0
2022-12-13T04:15:52.411Z,-7.0
2022-12-13T04:20:59.880Z,-7.0
2022-12-13T04:26:30.161Z,-7.0
2022-12-13T04:31:16.087Z,-7.0
2022-12-13T04:36:31.170Z,-7.1
2022-12-13T04:41:34.566Z,-7.1
2022-12-13T04:46:35.197Z,-7.1
2022-12-13T04:53:28.023Z,-7.2
2022-12-13T04:57:23.270Z,-7.2
2022-12-13T05:02:33.734Z,-7.2
2022-12-13T05:07:42.748Z,-7.2
2022-12-13T05:12:46.409Z,-7.3
2022-12-13T05:17:48.752Z,-7.2
2022-12-13T05:38:14.611Z,-7.4
2022-12-13T05:45:41.437Z,-7.4
2022-12-13T05:48:27.482Z,-7.4
2022-12-13T05:53:33.882Z,-7.4
2022-12-13T05:59:52.437Z,-7.5
2022-12-13T06:03:46.822Z,-7.5
2022-12-13T06:08:53.120Z,-7.5
2022-12-13T06:14:23.468Z,-7.5
2022-12-13T06:19:33.876Z,-7.6
2022-12-13T06:24:12.171Z,-7.6
2022-12-13T06:29:25.200Z,-7.6
2022-12-13T06:34:38.989Z,-7.6
2022-12-13T06:39:38.794Z,-7.6
2022-12-13T06:44:37.846Z,-7.7
2022-12-13T06:49:45.005Z,-7.6
2022-12-13T06:55:24.750Z,-7.7
2022-12-13T07:00:36.826Z,-7.7
2022-12-13T07:05:43.164Z,-7.7
2022-12-13T07:15:50.601Z,-7.7
2022-12-13T07:15:52.572Z,-7.7
2022-12-13T07:20:47.927Z,-7.8
2022-12-13T07:27:06.435Z,-7.8
2022-12-13T07:31:10.745Z,-7.8
2022-12-13T07:36:17.099Z,-7.8
2022-12-13T07:41:47.497Z,-7.8
2022-12-13T07:46:32.050Z,-7.8
2022-12-13T07:51:36.739Z,-7.8
2022-12-13T07:56:46.982Z,-7.8
2022-12-13T08:03:01.495Z,-7.8
2022-12-13T08:06:55.929Z,-7.8
2022-12-13T08:12:02.257Z,-7.8
2022-12-13T08:17:08.645Z,-7.8
2022-12-13T08:22:15.040Z,-7.8
2022-12-13T08:27:45.570Z,-7.8
2022-12-13T08:32:29.474Z,-7.7
2022-12-13T08:37:35.891Z,-7.7
2022-12-13T08:42:42.237Z,-7.6
2022-12-13T08:47:48.622Z,-7.6
2022-12-13T08:52:55.102Z,-7.5
2022-12-13T08:58:01.486Z,-7.5
2022-12-13T09:03:10.128Z,-7.4
2022-12-13T09:08:23.260Z,-7.3
2022-12-13T09:13:44.881Z,-7.3
2022-12-13T09:23:39.051Z,-7.1
2022-12-13T09:29:11.529Z,-7.0
2022-12-13T09:33:47.832Z,-6.9
2022-12-13T09:38:44.227Z,-6.9
2022-12-13T09:44:01.046Z,-6.8
2022-12-13T09:49:27.065Z,-6.7
2022-12-13T09:54:03.390Z,-6.6
2022-12-13T09:59:18.739Z,-6.5
2022-12-13T10:04:16.117Z,-6.4
2022-12-13T10:09:36.581Z,-6.3
2022-12-13T10:14:38.927Z,-6.2
2022-12-13T10:19:45.306Z,-6.1
2022-12-13T10:24:51.759Z,-5.9
2022-12-13T10:29:58.133Z,-5.9
2022-12-13T10:35:04.491Z,-5.7
2022-12-13T10:40:10.890Z,-5.6
2022-12-13T10:50:43.736Z,-5.4
2022-12-13T11:00:36.369Z,-5.2
2022-12-13T11:05:42.828Z,-5.1
2022-12-13T11:10:49.182Z,-5.0
2022-12-13T11:21:02.065Z,-4.7
2022-12-13T11:26:08.452Z,-4.6
2022-12-13T11:31:14.841Z,-4.5
2022-12-13T11:36:21.256Z,-4.4
2022-12-13T11:41:32.279Z,-4.2
2022-12-13T11:46:34.010Z,-4.1
2022-12-13T11:51:40.414Z,-3.9
2022-12-13T11:56:46.765Z,-3.6
2022-12-13T12:01:53.163Z,-3.3
2022-12-13T12:12:11.634Z,-1.7
2022-12-13T12:17:04.035Z,-0.8
2022-12-13T12:22:14.901Z,0.2
2022-12-13T12:27:25.847Z,1.0
2022-12-13T12:32:33.225Z,1.9
2022-12-13T12:38:03.656Z,2.6
2022-12-13T12:43:15.915Z,3.3
2022-12-13T12:48:45.382Z,3.8
2022-12-13T12:53:01.758Z,4.2
2022-12-13T12:58:05.218Z,4.6
2022-12-13T13:18:30.867Z,5.1
2022-12-13T13:24:05.498Z,5.2
2022-12-13T13:29:07.861Z,5.2
2022-12-13T13:33:40.178Z,5.1
2022-12-13T13:39:56.746Z,5.1
2022-12-13T13:44:02.984Z,5.0
2022-12-13T13:54:15.769Z,4.9
2022-12-13T13:59:22.196Z,4.9
2022-12-13T14:04:18.548Z,4.8
2022-12-13T14:09:38.633Z,4.7
2022-12-13T14:14:41.360Z,4.6
2022-12-13T14:19:50.644Z,4.5
2022-12-13T14:24:54.091Z,4.3
2022-12-13T14:30:00.495Z,4.1
2022-12-13T14:36:06.996Z,3.8
2022-12-13T14:40:03.251Z,3.5
2022-12-13T14:45:43.816Z,3.3
2022-12-13T14:50:46.163Z,3.0
2022-12-13T14:55:32.618Z,2.7
2022-12-13T15:00:39.152Z,2.4
2022-12-13T15:05:50.332Z,2.1
2022-12-13T15:10:51.957Z,1.8
2022-12-13T15:15:48.332Z,1.6
2022-12-13T15:21:10.020Z,1.3
2022-12-13T15:31:17.592Z,0.8
2022-12-13T15:36:24.064Z,0.6
2022-12-13T15:41:30.592Z,0.3
2022-12-13T15:46:27.044Z,0.1
2022-12-13T15:51:43.385Z,-0.1
2022-12-13T15:56:49.755Z,-0.3
2022-12-13T16:01:58.537Z,-0.5
2022-12-13T16:07:04.149Z,-0.6
2022-12-13T16:12:10.649Z,-0.8
2022-12-13T16:17:17.197Z,-0.9
2022-12-13T16:22:13.560Z,-1.1
2022-12-13T16:27:54.054Z,-1.2
2022-12-13T16:32:55.945Z,-1.3
2022-12-13T16:42:49.170Z,-1.6
2022-12-13T16:49:08.441Z,-1.7
2022-12-13T16:53:24.046Z,-1.8
2022-12-13T16:59:32.934Z,-2.0
2022-12-13T17:08:22.734Z,-2.2
2022-12-13T17:14:13.435Z,-2.2
2022-12-13T17:22:24.214Z,-2.3
2022-12-13T17:23:42.229Z,-2.4
2022-12-13T17:28:48.650Z,-2.5
2022-12-13T17:36:15.314Z,-2.6
2022-12-13T17:39:03.061Z,-2.6
2022-12-13T17:49:16.009Z,-2.7
2022-12-13T17:54:22.474Z,-2.8
2022-12-13T17:59:29.143Z,-2.9
2022-12-13T18:04:59.635Z,-2.9
2022-12-13T18:09:41.986Z,-2.9
2022-12-13T18:15:12.445Z,-3.0
2022-12-13T18:20:15.034Z,-3.0
2022-12-13T18:30:14.319Z,-3.1
2022-12-13T18:36:41.713Z,-3.1
2022-12-13T18:40:27.948Z,-3.1
2022-12-13T18:45:34.418Z,-3.2
2022-12-13T18:51:53.036Z,-3.2
2022-12-13T18:55:51.907Z,-3.2
2022-12-13T19:03:42.607Z,-3.3
2022-12-13T19:06:04.873Z,-3.3
2022-12-13T19:16:17.925Z,-3.3
2022-12-13T19:17:31.995Z,-3.3
2022-12-13T19:21:24.257Z,-3.3
2022-12-13T19:26:30.694Z,-3.4
2022-12-13T19:31:31.866Z,-3.4
2022-12-13T19:36:42.484Z,-3.4
2022-12-13T19:42:03.850Z,-3.4
2022-12-13T19:47:00.316Z,-3.4
2022-12-13T19:57:09.265Z,-3.5
2022-12-13T20:02:15.591Z,-3.5
2022-12-13T20:07:11.968Z,-3.5
2022-12-13T20:12:28.340Z,-3.6
2022-12-13T20:22:41.190Z,-3.6
2022-12-13T20:27:47.564Z,-3.6
2022-12-13T20:34:06.120Z,-3.6
2022-12-13T20:38:20.542Z,-3.6
2022-12-13T20:42:56.854Z,-3.6
2022-12-13T20:48:37.319Z,-3.6
2022-12-13T20:53:09.622Z,-3.7
2022-12-13T20:58:26.046Z,-3.7
2022-12-13T21:03:32.400Z,-3.7
2022-12-13T21:08:58.818Z,-3.7
2022-12-13T21:14:29.447Z,-3.7
2022-12-13T21:18:51.779Z,-3.7
2022-12-13T21:23:58.158Z,-3.7
2022-12-13T21:29:24.584Z,-3.7
2022-12-13T21:34:14.949Z,-3.7
2022-12-13T21:39:07.293Z,-3.8
2022-12-13T21:44:23.721Z,-3.8
2022-12-13T21:49:20.091Z,-3.8
2022-12-13T21:54:36.471Z,-3.8
2022-12-13T21:59:42.874Z,-3.8
2022-12-13T22:04:49.324Z,-3.8
2022-12-13T22:09:55.659Z,-3.8
2022-12-13T22:15:02.007Z,-3.8
2022-12-13T22:20:08.496Z,-3.8
2022-12-13T22:25:14.753Z,-3.8
2022-12-13T22:30:21.136Z,-3.8
2022-12-13T22:35:27.533Z,-3.8
2022-12-13T22:40:37.890Z,-3.8
2022-12-13T22:45:44.312Z,-3.8
2022-12-13T22:50:46.729Z,-3.8
2022-12-13T22:56:13.121Z,-3.8
2022-12-13T23:01:03.661Z,-3.8
2022-12-13T23:06:29.918Z,-3.9
2022-12-13T23:11:12.237Z,-3.8
2022-12-13T23:21:25.116Z,-3.9
2022-12-13T23:26:31.519Z,-3.9
2022-12-13T23:31:27.858Z,-3.9
2022-12-13T23:36:44.394Z,-3.9
2022-12-13T23:41:50.889Z,-3.9
2022-12-13T23:46:57.182Z,-3.9
2022-12-13T23:52:03.569Z,-3.9
2022-12-13T23:57:09.964Z,-4.0
